Time;durP1;ratioP1;P1;durP2;ratioP2;P2;SDS_P1;SDS_P2;PMS_P1;PMS_P2;Temp;Humidity;BMP_temperature;BMP_pressure;BME280_temperature;BME280_humidity;BME280_pressure;Samples;Min_cycle;Max_cycle;Signal;HPM_P1;HPM_P2
2022/07/12 00:02:00;;;;;;;0.50;0.50;;;;;;;14.82;79.51;98829.22;4965014;28;20098;-84
2022/07/12 00:04:27;;;;;;;0.52;0.52;;;;;;;14.86;79.67;98826.97;4944670;29;20044;-85
2022/07/12 00:06:54;;;;;;;0.45;0.45;;;;;;;14.90;79.31;98831.63;4944441;28;20047;-85
2022/07/12 00:09:21;;;;;;;0.50;0.50;;;;;;;14.83;79.67;98825.56;4942059;28;20052;-85
2022/07/12 00:11:48;;;;;;;0.40;0.40;;;;;;;14.86;79.64;98819.03;4948336;29;20114;-85
2022/07/12 00:14:15;;;;;;;0.40;0.40;;;;;;;14.87;79.69;98821.50;4969201;28;20462;-84
2022/07/12 00:16:41;;;;;;;0.50;0.50;;;;;;;14.89;79.49;98829.22;4943518;29;20558;-84
2022/07/12 00:19:08;;;;;;;0.40;0.40;;;;;;;14.96;79.65;98830.78;4947667;28;20050;-85
2022/07/12 00:21:35;;;;;;;0.30;0.30;;;;;;;14.95;79.66;98823.09;4946207;29;20039;-84
2022/07/12 00:24:02;;;;;;;0.20;0.20;;;;;;;14.97;79.48;98829.75;4960097;28;20499;-84
2022/07/12 00:26:28;;;;;;;0.40;0.40;;;;;;;14.97;79.39;98824.47;4948357;29;20047;-85
2022/07/12 00:28:56;;;;;;;0.20;0.20;;;;;;;14.95;79.36;98818.63;4946084;28;20074;-85
2022/07/12 00:31:23;;;;;;;0.40;0.40;;;;;;;14.91;79.04;98813.94;4944885;29;20058;-84
2022/07/12 00:33:49;;;;;;;0.20;0.20;;;;;;;14.89;78.85;98818.63;4956750;28;20035;-84
2022/07/12 00:36:16;;;;;;;0.30;0.30;;;;;;;14.85;79.23;98817.44;4953927;28;20117;-85
2022/07/12 00:38:43;;;;;;;0.40;0.40;;;;;;;14.82;79.15;98813.38;4952787;28;20043;-84
2022/07/12 00:41:09;;;;;;;0.45;0.45;;;;;;;14.78;78.90;98816.66;4942108;29;20047;-84
2022/07/12 00:43:36;;;;;;;0.70;0.70;;;;;;;14.66;79.26;98830.50;4953571;28;20043;-84
2022/07/12 00:46:03;;;;;;;0.60;0.60;;;;;;;14.47;79.95;98804.97;4951973;29;20051;-85
2022/07/12 00:48:33;;;;;;;0.77;0.77;;;;;;;14.39;80.23;98823.63;4934219;29;20044;-85
2022/07/12 00:51:01;;;;;;;0.70;0.70;;;;;;;14.36;80.36;98826.69;4950995;29;20047;-85
2022/07/12 00:53:28;;;;;;;0.70;0.70;;;;;;;14.22;80.37;98822.44;4941220;28;20047;-85
2022/07/12 00:55:58;;;;;;;0.70;0.70;;;;;;;14.12;80.56;98834.22;4924401;29;20099;-85
2022/07/12 00:58:27;;;;;;;0.70;0.70;;;;;;;14.08;80.73;98822.44;4939624;29;20503;-84
2022/07/12 01:01:05;;;;;;;0.70;0.70;;;;;;;14.06;80.66;98827.13;4942503;29;20059;-84
2022/07/12 01:03:32;;;;;;;0.73;0.73;;;;;;;13.89;81.35;98824.06;4953142;29;20480;-84
2022/07/12 01:05:59;;;;;;;0.80;0.80;;;;;;;13.82;81.66;98822.47;4953542;28;20139;-84
2022/07/12 01:08:27;;;;;;;1.55;0.68;;;;;;;13.81;81.87;98826.94;4951522;29;20106;-85
2022/07/12 01:10:54;;;;;;;0.60;0.60;;;;;;;13.81;81.84;98819.00;4953583;29;20400;-84
2022/07/12 01:13:21;;;;;;;0.50;0.50;;;;;;;13.89;81.91;98823.28;4952017;29;20078;-85
2022/07/12 01:15:48;;;;;;;0.50;0.50;;;;;;;13.94;81.55;98823.47;4947765;28;20075;-85
2022/07/12 01:18:18;;;;;;;0.40;0.40;;;;;;;13.93;81.56;98819.22;4934299;29;20047;-84
2022/07/12 01:20:45;;;;;;;0.40;0.40;;;;;;;13.99;81.61;98828.16;4948295;29;20047;-84
2022/07/12 01:23:13;;;;;;;1.27;0.60;;;;;;;13.97;81.10;98823.06;4953387;28;20077;-84
2022/07/12 01:25:40;;;;;;;0.98;0.50;;;;;;;13.92;81.18;98822.88;4953273;28;20126;-85
2022/07/12 01:28:07;;;;;;;1.13;0.70;;;;;;;13.82;80.55;98818.00;4948044;29;20079;-85
2022/07/12 01:30:34;;;;;;;0.60;0.60;;;;;;;13.62;81.03;98812.72;4941544;28;20068;-85
2022/07/12 01:33:01;;;;;;;1.40;0.75;;;;;;;13.65;81.54;98820.22;4952911;29;20101;-84
2022/07/12 01:35:28;;;;;;;0.57;0.57;;;;;;;13.70;82.14;98806.44;4953146;28;20063;-85
2022/07/12 01:37:56;;;;;;;0.50;0.50;;;;;;;13.76;81.42;98825.91;4952895;28;20058;-84
2022/07/12 01:40:23;;;;;;;0.60;0.60;;;;;;;13.75;81.60;98819.00;4954655;28;20460;-84
2022/07/12 01:42:51;;;;;;;0.50;0.50;;;;;;;13.82;81.57;98819.81;4950478;28;20087;-84
2022/07/12 01:45:18;;;;;;;0.70;0.60;;;;;;;13.80;81.42;98814.75;4949680;29;20058;-84
2022/07/12 01:47:45;;;;;;;0.30;0.30;;;;;;;13.81;81.26;98818.19;4937311;29;20059;-84
2022/07/12 01:50:11;;;;;;;0.60;0.60;;;;;;;13.81;80.78;98819.00;4955836;29;20086;-84
2022/07/12 01:52:40;;;;;;;0.57;0.57;;;;;;;13.85;81.26;98828.16;4956495;28;20043;-85
2022/07/12 01:55:10;;;;;;;0.35;0.35;;;;;;;13.79;81.19;98815.75;4964442;28;20492;-84
2022/07/12 01:57:41;;;;;;;0.60;0.60;;;;;;;13.76;80.91;98818.00;4938732;29;20453;-85
2022/07/12 02:00:22;;;;;;;0.60;0.60;;;;;;;13.75;80.90;98832.19;4966546;28;20058;-84
2022/07/12 02:02:49;;;;;;;0.50;0.50;;;;;;;13.72;81.20;98832.59;4970370;28;20047;-85
2022/07/12 02:05:16;;;;;;;0.52;0.52;;;;;;;13.64;81.38;98825.69;4957048;28;20035;-84
2022/07/12 02:07:43;;;;;;;0.70;0.60;;;;;;;13.64;81.65;98826.50;4957241;28;20039;-84
2022/07/12 02:10:10;;;;;;;0.50;0.50;;;;;;;13.73;80.88;98823.66;4955636;29;20043;-84
2022/07/12 02:12:36;;;;;;;0.40;0.40;;;;;;;13.68;80.77;98832.19;4955217;29;20051;-84
2022/07/12 02:15:08;;;;;;;0.65;0.65;;;;;;;13.57;80.67;98817.78;4950934;29;20252;-84
2022/07/12 02:17:35;;;;;;;0.60;0.60;;;;;;;13.56;81.08;98829.34;4956410;29;20039;-84
2022/07/12 02:20:03;;;;;;;0.60;0.60;;;;;;;13.51;81.11;98829.13;4956120;28;20102;-84
2022/07/12 02:22:30;;;;;;;0.77;0.70;;;;;;;13.46;81.59;98823.63;4955440;29;20451;-84
2022/07/12 02:24:56;;;;;;;0.40;0.40;;;;;;;13.48;81.60;98821.59;4954974;29;20047;-84
2022/07/12 02:27:23;;;;;;;0.47;0.47;;;;;;;13.50;81.58;98824.88;4952365;29;20052;-84
2022/07/12 02:29:49;;;;;;;0.40;0.40;;;;;;;13.49;81.69;98812.69;4956610;28;20543;-85
2022/07/12 02:32:16;;;;;;;0.47;0.47;;;;;;;13.57;81.93;98828.31;4948006;29;20043;-84
2022/07/12 02:34:43;;;;;;;0.40;0.40;;;;;;;13.63;81.93;98830.16;4956511;29;20043;-85
2022/07/12 02:37:09;;;;;;;0.40;0.40;;;;;;;13.66;81.61;98829.72;4954635;29;20439;-84
2022/07/12 02:39:37;;;;;;;0.30;0.30;;;;;;;13.61;81.25;98815.53;4956330;29;20612;-85
2022/07/12 02:42:04;;;;;;;0.47;0.47;;;;;;;13.60;80.96;98830.53;4948434;29;20131;-84
2022/07/12 02:44:31;;;;;;;0.60;0.60;;;;;;;13.41;81.51;98822.59;4936597;29;20551;-84
2022/07/12 02:47:00;;;;;;;0.47;0.47;;;;;;;13.41;82.33;98820.78;4939850;29;20103;-84
2022/07/12 02:49:27;;;;;;;0.63;0.63;;;;;;;13.33;82.11;98827.06;4953996;29;20487;-85
2022/07/12 02:51:53;;;;;;;0.60;0.60;;;;;;;13.41;82.45;98831.31;4953129;28;20075;-85
2022/07/12 02:54:20;;;;;;;0.50;0.50;;;;;;;13.38;81.95;98834.38;4955855;28;20090;-84
2022/07/12 02:56:46;;;;;;;0.80;0.80;;;;;;;13.38;82.28;98839.66;4950287;29;20460;-84
2022/07/12 02:59:13;;;;;;;0.50;0.50;;;;;;;13.29;81.94;98817.13;4940790;29;20044;-84
2022/07/12 03:01:40;;;;;;;0.40;0.40;;;;;;;13.29;82.12;98832.91;4948069;29;20078;-85
2022/07/12 03:04:06;;;;;;;0.90;0.90;;;;;;;13.30;82.36;98837.16;4969924;28;20044;-84
2022/07/12 03:06:33;;;;;;;0.65;0.65;;;;;;;13.29;82.39;98832.91;4970047;28;20047;-84
2022/07/12 03:09:00;;;;;;;0.60;0.60;;;;;;;13.27;83.28;98832.31;4953173;28;20047;-85
2022/07/12 03:11:27;;;;;;;0.57;0.57;;;;;;;13.30;82.94;98835.34;4944483;29;20075;-86
2022/07/12 03:13:53;;;;;;;0.50;0.50;;;;;;;13.27;83.15;98827.06;4953003;28;20481;-85
2022/07/12 03:16:20;;;;;;;0.50;0.50;;;;;;;13.36;83.10;98839.81;4961068;28;20047;-85
2022/07/12 03:18:47;;;;;;;0.60;0.60;;;;;;;13.30;82.85;98835.34;4954039;29;20086;-85
2022/07/12 03:21:13;;;;;;;0.40;0.40;;;;;;;13.39;83.03;98838.63;4954377;28;20039;-85
2022/07/12 03:23:40;;;;;;;0.52;0.50;;;;;;;13.48;82.85;98840.06;4962763;28;20114;-85
2022/07/12 03:26:07;;;;;;;0.40;0.40;;;;;;;13.48;82.36;98845.31;4947168;28;20063;-86
2022/07/12 03:28:34;;;;;;;0.50;0.50;;;;;;;13.42;81.92;98838.22;4945282;29;20452;-85
2022/07/12 03:31:01;;;;;;;0.60;0.60;;;;;;;13.29;81.44;98817.91;4954845;29;20090;-85
2022/07/12 03:33:28;;;;;;;0.60;0.60;;;;;;;13.28;82.16;98844.47;4946918;28;20047;-85
2022/07/12 03:35:59;;;;;;;1.15;1.02;;;;;;;13.24;82.51;98845.88;4954559;28;20098;-85
2022/07/12 03:38:25;;;;;;;0.70;0.70;;;;;;;13.21;82.79;98847.09;4954828;28;20079;-85
2022/07/12 03:40:52;;;;;;;0.80;0.80;;;;;;;13.12;83.01;98854.31;4954621;29;20047;-85
2022/07/12 03:43:19;;;;;;;0.70;0.70;;;;;;;13.15;83.15;98854.94;4954844;29;20106;-85
2022/07/12 03:45:45;;;;;;;0.50;0.50;;;;;;;13.20;82.94;98850.72;4944032;29;20071;-85
2022/07/12 03:48:12;;;;;;;0.80;0.80;;;;;;;13.10;82.78;98851.06;4951780;29;20548;-85
2022/07/12 03:50:39;;;;;;;0.85;0.85;;;;;;;13.07;83.50;98859.38;4943694;29;20074;-85
2022/07/12 03:53:05;;;;;;;0.77;0.77;;;;;;;13.08;82.81;98858.38;4941345;29;20055;-85
2022/07/12 03:55:32;;;;;;;0.73;0.73;;;;;;;12.99;82.90;98851.63;4954876;28;20048;-85
2022/07/12 03:57:59;;;;;;;0.77;0.77;;;;;;;12.96;83.06;98852.03;4941932;29;20494;-85
2022/07/12 04:00:31;;;;;;;1.40;0.90;;;;;;;13.01;83.00;98862.78;4944715;29;20047;-85
2022/07/12 04:02:58;;;;;;;0.80;0.80;;;;;;;12.97;82.71;98866.00;4950311;28;20071;-85
2022/07/12 04:05:28;;;;;;;0.80;0.80;;;;;;;13.05;83.04;98858.75;4950256;29;20054;-85
2022/07/12 04:07:55;;;;;;;0.50;0.50;;;;;;;13.10;83.16;98864.25;4949762;29;20103;-85
2022/07/12 04:10:21;;;;;;;0.40;0.40;;;;;;;13.25;82.81;98868.56;4949487;29;20039;-85
2022/07/12 04:12:48;;;;;;;1.05;1.02;;;;;;;13.06;83.00;98857.72;4948562;28;20039;-85
2022/07/12 04:15:16;;;;;;;0.85;0.85;;;;;;;13.09;83.49;98870.53;4954532;28;20460;-85
2022/07/12 04:17:43;;;;;;;0.80;0.80;;;;;;;13.12;83.91;98867.47;4953989;28;20067;-84
2022/07/12 04:20:11;;;;;;;1.15;1.00;;;;;;;13.23;83.87;98875.84;4952595;29;20039;-85
2022/07/12 04:22:38;;;;;;;0.80;0.80;;;;;;;13.30;84.06;98871.41;4934974;29;20133;-84
2022/07/12 04:25:07;;;;;;;0.75;0.75;;;;;;;13.32;84.17;98874.69;4934797;29;20490;-85
2022/07/12 04:27:34;;;;;;;0.50;0.50;;;;;;;13.39;83.14;98875.53;4948149;29;20661;-85
2022/07/12 04:30:01;;;;;;;0.40;0.40;;;;;;;13.45;82.56;98869.44;4953451;28;20110;-85
2022/07/12 04:32:30;;;;;;;0.50;0.50;;;;;;;13.53;81.95;98882.44;4953504;28;20043;-85
2022/07/12 04:34:57;;;;;;;0.57;0.57;;;;;;;13.61;81.68;98887.53;4953435;28;20039;-85
2022/07/12 04:37:23;;;;;;;1.20;1.10;;;;;;;13.54;81.72;98883.25;4933390;29;20079;-84
2022/07/12 04:39:50;;;;;;;1.00;1.00;;;;;;;13.32;82.53;98887.88;4937681;29;20066;-84
2022/07/12 04:42:16;;;;;;;1.25;1.15;;;;;;;13.06;83.14;98880.63;4941791;29;20094;-85
2022/07/12 04:44:43;;;;;;;2.08;1.20;;;;;;;12.98;83.89;98888.69;4949119;29;20091;-85
2022/07/12 04:47:10;;;;;;;1.40;1.30;;;;;;;12.85;84.24;98898.16;4948168;29;20142;-85
2022/07/12 04:49:38;;;;;;;1.60;1.50;;;;;;;12.68;85.01;98888.13;4950306;28;20496;-84
2022/07/12 04:52:05;;;;;;;1.55;1.45;;;;;;;12.74;85.50;98890.00;4974046;28;20047;-85
2022/07/12 04:54:32;;;;;;;1.50;1.40;;;;;;;12.78;85.57;98889.41;4935602;28;20476;-84
2022/07/12 04:56:58;;;;;;;2.13;1.92;;;;;;;12.76;85.91;98880.88;4933928;29;20091;-85
2022/07/12 04:59:25;;;;;;;1.50;1.40;;;;;;;12.84;85.70;98893.91;4943869;29;20036;-85
2022/07/12 05:01:51;;;;;;;1.60;1.50;;;;;;;12.82;86.25;98890.63;4935078;29;20051;-85
2022/07/12 05:04:18;;;;;;;1.70;1.60;;;;;;;12.85;86.44;98890.25;4953505;29;20130;-85
2022/07/12 05:06:45;;;;;;;2.67;2.42;;;;;;;12.85;86.92;98910.50;4953432;29;20071;-85
2022/07/12 05:09:11;;;;;;;2.35;2.05;;;;;;;12.83;86.74;98896.72;4933517;28;20091;-85
2022/07/12 05:11:38;;;;;;;2.13;1.90;;;;;;;12.88;87.04;98894.31;4944071;29;20476;-85
2022/07/12 05:14:05;;;;;;;2.08;1.90;;;;;;;12.94;86.85;98904.06;4943176;29;20107;-85
2022/07/12 05:16:31;;;;;;;2.28;2.00;;;;;;;13.00;86.47;98907.75;4945450;29;20074;-84
2022/07/12 05:18:59;;;;;;;2.10;1.90;;;;;;;13.04;86.19;98907.16;4945502;29;20044;-84
2022/07/12 05:21:26;;;;;;;1.95;1.52;;;;;;;13.33;86.01;98918.47;4940738;29;20111;-82
2022/07/12 05:23:53;;;;;;;1.63;1.52;;;;;;;13.46;85.18;98923.78;4951109;28;20047;-82
2022/07/12 05:26:19;;;;;;;1.33;1.23;;;;;;;13.64;84.86;98924.03;4952326;29;20117;-82
2022/07/12 05:28:46;;;;;;;3.47;1.77;;;;;;;13.72;83.95;98919.56;4952542;29;20102;-83
2022/07/12 05:31:13;;;;;;;2.78;1.88;;;;;;;13.80;83.43;98919.41;4938664;29;20043;-82
2022/07/12 05:33:40;;;;;;;1.63;1.30;;;;;;;14.00;83.52;98916.78;4950541;29;20102;-82
2022/07/12 05:36:07;;;;;;;1.20;1.10;;;;;;;14.20;82.94;98914.97;4950794;28;20051;-83
2022/07/12 05:38:34;;;;;;;1.20;1.10;;;;;;;14.38;81.82;98917.00;4948627;29;20098;-83
2022/07/12 05:41:01;;;;;;;1.95;1.80;;;;;;;14.47;80.98;98926.38;4946891;28;20117;-83
2022/07/12 05:43:27;;;;;;;1.30;1.20;;;;;;;14.62;81.10;98921.69;4951856;29;20605;-82
2022/07/12 05:45:55;;;;;;;1.30;1.20;;;;;;;14.84;80.87;98916.16;4946717;29;20070;-82
2022/07/12 05:48:22;;;;;;;1.38;1.20;;;;;;;15.07;79.14;98911.22;4948205;28;20055;-83
2022/07/12 05:50:49;;;;;;;1.55;1.10;;;;;;;15.32;79.64;98913.97;4948389;29;20082;-82
2022/07/12 05:53:21;;;;;;;1.52;0.98;;;;;;;15.52;78.40;98919.16;4946466;28;20094;-82
2022/07/12 05:55:53;;;;;;;2.30;1.40;;;;;;;15.65;78.12;98919.13;4949112;29;20515;-82
2022/07/12 05:58:21;;;;;;;2.10;1.42;;;;;;;15.81;77.66;98932.88;4945976;28;20043;-81
2022/07/12 06:00:48;;;;;;;2.60;1.92;;;;;;;15.79;76.66;98931.25;4950213;28;20227;-84
2022/07/12 06:03:16;;;;;;;1.67;1.50;;;;;;;15.97;77.31;98922.59;4941353;28;20134;-86
2022/07/12 06:05:43;;;;;;;2.03;1.83;;;;;;;16.12;76.28;98926.75;4946300;29;20054;-86
2022/07/12 06:08:10;;;;;;;2.78;2.00;;;;;;;16.27;75.86;98925.44;4946162;28;20039;-86
2022/07/12 06:10:37;;;;;;;2.20;1.65;;;;;;;16.37;76.25;98943.44;4939556;28;20043;-85
2022/07/12 06:13:04;;;;;;;2.13;1.48;;;;;;;16.59;75.50;98941.25;4959036;28;20126;-86
2022/07/12 06:15:31;;;;;;;2.10;1.90;;;;;;;16.64;74.86;98938.75;4940187;29;20043;-86
2022/07/12 06:18:00;;;;;;;2.00;1.80;;;;;;;16.75;73.97;98935.41;4946587;28;20098;-86
2022/07/12 06:20:45;;;;;;;1.75;1.50;;;;;;;17.03;75.57;98928.81;4947868;29;20050;-86
2022/07/12 06:23:13;;;;;;;1.75;1.60;;;;;;;17.19;72.77;98936.16;4945244;29;20047;-86
2022/07/12 06:25:40;;;;;;;2.40;1.98;;;;;;;17.26;72.24;98942.19;4951498;28;20562;-85
2022/07/12 06:28:10;;;;;;;2.88;1.90;;;;;;;17.36;72.80;98941.69;4955516;28;20070;-86
2022/07/12 06:30:36;;;;;;;2.70;2.05;;;;;;;17.42;72.17;98930.19;4954727;29;20058;-86
2022/07/12 06:33:03;;;;;;;1.65;1.45;;;;;;;17.65;72.87;98948.06;4974377;28;20122;-86
2022/07/12 06:35:30;;;;;;;2.03;1.60;;;;;;;17.77;70.82;98937.53;4970613;28;20063;-87
2022/07/12 06:37:57;;;;;;;2.85;1.40;;;;;;;17.92;71.98;98951.97;4955415;28;20047;-86
2022/07/12 06:40:23;;;;;;;1.25;1.15;;;;;;;18.10;72.49;98937.81;4951376;28;20043;-86
2022/07/12 06:42:50;;;;;;;1.77;1.67;;;;;;;18.16;70.46;98952.03;4949766;29;20111;-87
2022/07/12 06:45:17;;;;;;;1.77;1.42;;;;;;;18.34;70.70;98965.25;4943347;29;20114;-87
2022/07/12 06:47:44;;;;;;;1.60;1.50;;;;;;;18.42;70.87;98951.63;4945913;29;20058;-86
2022/07/12 06:50:12;;;;;;;2.05;1.70;;;;;;;18.36;69.14;98968.50;4954414;29;20652;-87
2022/07/12 06:52:38;;;;;;;2.13;1.75;;;;;;;18.44;68.97;98964.69;4936365;28;20732;-87
2022/07/12 06:55:07;;;;;;;1.30;1.20;;;;;;;18.52;69.13;98971.50;4943365;29;20067;-86
2022/07/12 06:57:34;;;;;;;1.58;1.48;;;;;;;18.57;68.34;98956.50;4949919;29;20040;-86
2022/07/12 07:00:02;;;;;;;1.65;1.40;;;;;;;18.65;67.84;98961.47;4939824;29;20063;-86
2022/07/12 07:02:28;;;;;;;4.65;1.90;;;;;;;18.62;67.03;98958.47;4955544;28;20095;-87
2022/07/12 07:04:55;;;;;;;1.42;1.33;;;;;;;18.76;68.56;98957.22;4964409;28;20055;-87
2022/07/12 07:07:22;;;;;;;1.58;1.48;;;;;;;19.00;66.68;98958.00;4961598;28;20043;-87
2022/07/12 07:09:49;;;;;;;1.90;1.50;;;;;;;19.01;64.95;98958.81;4951258;29;20488;-88
2022/07/12 07:12:16;;;;;;;2.33;1.48;;;;;;;18.91;65.61;98962.88;4950125;29;20043;-88
2022/07/12 07:14:42;;;;;;;1.75;1.60;;;;;;;19.02;64.79;98965.78;4953928;28;20098;-87
2022/07/12 07:17:09;;;;;;;1.50;1.40;;;;;;;19.24;64.45;98964.91;4954642;28;20047;-87
2022/07/12 07:19:39;;;;;;;1.35;1.25;;;;;;;19.37;64.64;98958.53;4950741;29;20075;-89
2022/07/12 07:22:05;;;;;;;1.55;1.25;;;;;;;19.56;65.15;98961.03;4955008;28;20083;-88
2022/07/12 07:24:32;;;;;;;1.80;1.70;;;;;;;19.60;63.21;98970.16;4953356;29;20455;-88
2022/07/12 07:26:58;;;;;;;1.15;1.15;;;;;;;19.65;64.49;98959.63;4954038;28;20099;-87
2022/07/12 07:32:11;;;;;;;1.20;1.10;;;;;;;19.84;62.37;98969.03;4952868;29;20137;-89
2022/07/12 07:34:38;;;;;;;1.40;1.30;;;;;;;19.98;63.37;98972.22;4950470;28;20071;-87
2022/07/12 07:37:05;;;;;;;2.55;2.35;;;;;;;20.09;61.97;98975.84;4964089;28;20043;-88
2022/07/12 07:39:32;;;;;;;1.33;1.23;;;;;;;20.22;62.88;98968.38;4953805;29;20094;-87
2022/07/12 07:41:58;;;;;;;1.83;1.20;;;;;;;20.26;62.43;98971.34;4943363;29;20099;-87
2022/07/12 07:44:25;;;;;;;2.25;1.35;;;;;;;20.34;60.97;98980.84;4939966;29;20106;-88
2022/07/12 07:47:00;;;;;;;1.35;0.88;;;;;;;20.79;63.24;98980.75;4942216;29;20058;-88
2022/07/12 07:49:27;;;;;;;1.40;1.17;;;;;;;21.02;59.71;98979.75;4952742;29;20415;-87
2022/07/12 07:51:54;;;;;;;1.40;1.23;;;;;;;21.18;58.92;98978.13;4954072;28;20050;-87
2022/07/12 07:54:20;;;;;;;1.20;1.15;;;;;;;21.36;59.03;98981.31;4953911;28;20043;-87
2022/07/12 07:56:47;;;;;;;1.35;1.17;;;;;;;21.49;57.85;98974.78;4946263;28;20939;-87
2022/07/12 07:59:14;;;;;;;1.30;1.20;;;;;;;21.63;57.43;98968.00;4956044;28;20070;-89
2022/07/12 08:01:48;;;;;;;1.25;1.13;;;;;;;21.72;56.02;98963.03;4940376;29;20520;-88
2022/07/12 08:04:27;;;;;;;1.13;0.90;;;;;;;21.85;56.44;98975.19;4939093;29;20047;-87
2022/07/12 08:06:58;;;;;;;0.93;0.93;;;;;;;21.92;57.12;98967.78;4952116;29;20154;-90
2022/07/12 08:09:25;;;;;;;1.27;1.17;;;;;;;21.82;56.79;98973.00;4929731;29;20090;-86
2022/07/12 08:11:57;;;;;;;0.95;0.95;;;;;;;22.02;56.93;98977.78;4964675;28;20048;-89
2022/07/12 08:14:31;;;;;;;0.98;0.90;;;;;;;22.26;56.04;98972.94;4957986;29;20098;-87
2022/07/12 08:16:58;;;;;;;;;;;;;;;21.81;58.70;98968.72;4955647;29;20035;-88
2022/07/12 08:19:25;;;;;;;0.90;0.82;;;;;;;21.83;58.92;98977.28;4947236;28;19965;-88
2022/07/12 08:21:51;;;;;;;0.80;0.80;;;;;;;22.16;55.53;98963.75;4952535;29;20051;-87
2022/07/12 08:24:21;;;;;;;1.70;1.08;;;;;;;22.33;53.65;98954.81;4946476;29;20047;-87
2022/07/12 08:26:49;;;;;;;1.00;1.00;;;;;;;22.30;53.30;98939.28;4947117;28;20713;-86
2022/07/12 08:29:31;;;;;;;0.75;0.75;;;;;;;22.63;52.73;98957.72;4957709;29;20156;-86
2022/07/12 08:32:01;;;;;;;0.80;0.80;;;;;;;22.76;52.64;98956.47;4955081;29;20043;-86
2022/07/12 08:34:29;;;;;;;0.90;0.90;;;;;;;22.41;54.47;98943.66;4953599;29;20079;-87
2022/07/12 08:36:55;;;;;;;0.80;0.80;;;;;;;22.67;56.41;98956.16;4970877;28;20102;-85
2022/07/12 08:39:22;;;;;;;0.80;0.80;;;;;;;22.94;51.32;98956.06;4950515;29;20142;-86
2022/07/12 08:41:49;;;;;;;1.02;1.00;;;;;;;23.01;50.34;98950.50;4945323;29;20051;-86
2022/07/12 08:44:15;;;;;;;1.17;1.15;;;;;;;22.82;50.21;98959.97;4961590;28;20077;-87
2022/07/12 08:46:42;;;;;;;0.80;0.80;;;;;;;22.84;50.57;98955.16;4952016;28;20051;-87
2022/07/12 08:49:09;;;;;;;0.70;0.70;;;;;;;22.96;50.95;98947.78;4956820;28;20078;-86
2022/07/12 08:51:35;;;;;;;0.85;0.85;;;;;;;22.86;51.38;98955.75;4952083;28;20047;-86
2022/07/12 08:54:15;;;;;;;0.65;0.65;;;;;;;22.58;52.95;98964.91;4945781;29;20052;-86
2022/07/12 08:56:44;;;;;;;0.60;0.60;;;;;;;22.73;53.47;98961.50;4947831;29;20101;-86
2022/07/12 08:59:16;;;;;;;0.75;0.75;;;;;;;22.53;51.46;98954.97;4950942;29;20105;-86
2022/07/12 09:01:54;;;;;;;0.60;0.60;;;;;;;22.41;52.61;98954.34;4950211;29;20091;-86
2022/07/12 09:04:24;;;;;;;0.77;0.77;;;;;;;22.48;52.05;98952.25;4963644;28;20530;-86
2022/07/12 09:06:51;;;;;;;0.73;0.60;;;;;;;22.73;48.39;98961.50;4951965;28;20044;-86
2022/07/12 09:09:35;;;;;;;0.52;0.52;;;;;;;23.08;49.45;98960.94;4949936;28;20043;-88
2022/07/12 09:12:01;;;;;;;0.68;0.68;;;;;;;23.26;47.50;98959.69;4933585;29;20040;-88
2022/07/12 09:14:28;;;;;;;0.60;0.60;;;;;;;23.48;47.08;98954.97;4962634;28;20047;-87
2022/07/12 09:17:04;;;;;;;0.50;0.50;;;;;;;23.89;46.13;98963.97;4949526;28;20475;-87
2022/07/12 09:19:31;;;;;;;0.80;0.80;;;;;;;23.81;47.10;98963.66;4950483;28;20384;-88
2022/07/12 09:21:58;;;;;;;0.80;0.80;;;;;;;23.41;48.23;98949.06;4964349;28;20051;-87
2022/07/12 09:24:27;;;;;;;0.60;0.60;;;;;;;23.46;48.16;98959.81;4965635;28;20448;-87
2022/07/12 09:27:04;;;;;;;0.80;0.80;;;;;;;22.69;48.78;98959.38;4950737;29;20090;-87
2022/07/12 09:29:32;;;;;;;0.60;0.60;;;;;;;22.43;49.32;98958.41;4954400;29;20047;-86
2022/07/12 09:37:46;;;;;;;0.70;0.70;;;;;;;22.82;49.95;98951.97;4950436;29;20293;-87
2022/07/12 09:40:13;;;;;;;0.60;0.60;;;;;;;22.97;49.23;98962.78;4942118;28;20463;-87
2022/07/12 09:42:41;;;;;;;0.50;0.50;;;;;;;23.45;49.73;98963.53;4948665;29;20583;-86
2022/07/12 09:45:10;;;;;;;0.70;0.70;;;;;;;23.84;46.29;98963.13;4952769;28;20051;-87
2022/07/12 09:47:37;;;;;;;0.85;0.60;;;;;;;23.90;44.85;98954.03;4952176;28;20389;-87
2022/07/12 09:50:07;;;;;;;1.15;0.60;;;;;;;24.25;44.51;98956.75;4951414;29;20071;-86
2022/07/12 09:52:37;;;;;;;0.60;0.60;;;;;;;24.00;44.21;98952.19;4932169;29;20052;-87
2022/07/12 09:55:09;;;;;;;0.60;0.60;;;;;;;24.24;46.54;98941.75;4933529;29;20156;-86
2022/07/12 09:57:41;;;;;;;0.50;0.50;;;;;;;24.55;45.04;98950.63;4939776;29;20039;-87
2022/07/12 10:00:11;;;;;;;0.40;0.40;;;;;;;24.29;45.15;98954.34;4939686;29;20407;-87
2022/07/12 10:02:40;;;;;;;;;;;;;;;24.33;45.79;98959.97;4948635;29;20058;-87
2022/07/12 10:05:09;;;;;;;0.50;0.50;;;;;;;23.99;46.63;98963.16;4947082;28;19922;-87
2022/07/12 10:07:39;;;;;;;0.57;0.57;;;;;;;23.47;44.36;98962.22;4946501;29;20135;-87
2022/07/12 10:10:09;;;;;;;0.60;0.60;;;;;;;23.44;45.60;98972.63;4961499;28;20091;-86
2022/07/12 10:12:37;;;;;;;0.75;0.70;;;;;;;23.40;43.58;98963.53;4948555;28;20075;-86
2022/07/12 10:15:17;;;;;;;0.65;0.65;;;;;;;23.60;44.67;98965.47;4931988;29;20097;-86
2022/07/12 10:17:58;;;;;;;0.85;0.57;;;;;;;23.84;44.47;98960.47;4950215;28;20043;-87
2022/07/12 10:20:46;;;;;;;0.70;0.63;;;;;;;24.16;45.50;98947.63;4949178;29;20043;-87
2022/07/12 10:23:34;;;;;;;0.60;0.60;;;;;;;24.58;41.90;98949.25;4955583;29;20121;-87
2022/07/12 10:26:13;;;;;;;1.17;0.63;;;;;;;24.78;42.17;98938.50;4944637;28;20176;-87
2022/07/12 10:29:01;;;;;;;0.50;0.50;;;;;;;25.12;42.06;98937.88;4942976;29;20062;-89
2022/07/12 10:31:39;;;;;;;0.68;0.68;;;;;;;24.99;41.62;98933.88;4954001;29;20043;-86
2022/07/12 10:34:19;;;;;;;0.60;0.60;;;;;;;24.87;40.82;98929.91;4956361;28;20502;-88
2022/07/12 10:36:54;;;;;;;0.60;0.60;;;;;;;24.57;41.08;98931.56;4947447;28;20055;-89
2022/07/12 10:40:01;;;;;;;1.25;0.73;;;;;;;24.55;41.92;98934.53;4949012;28;20074;-88
2022/07/12 10:42:28;;;;;;;0.80;0.80;;;;;;;24.39;42.58;98935.59;4961578;28;20047;-88
2022/07/12 10:45:13;;;;;;;0.95;0.70;;;;;;;24.22;41.60;98922.44;4951816;28;20047;-86
2022/07/12 10:47:58;;;;;;;0.60;0.60;;;;;;;24.67;42.43;98931.56;4947447;29;20134;-86
2022/07/12 10:53:18;;;;;;;0.50;0.50;;;;;;;24.78;41.79;98930.47;4963503;28;20043;-87
2022/07/12 10:56:06;;;;;;;0.40;0.40;;;;;;;24.56;42.35;98930.75;4941720;28;20039;-87
2022/07/12 10:58:54;;;;;;;0.63;0.63;;;;;;;24.32;41.58;98923.53;4966001;28;20130;-87
2022/07/12 11:01:30;;;;;;;0.70;0.70;;;;;;;24.05;42.31;98929.97;4955583;28;20047;-88
2022/07/12 11:04:06;;;;;;;0.60;0.60;;;;;;;24.34;41.21;98932.09;4955312;28;20046;-86
2022/07/12 11:06:41;;;;;;;0.60;0.60;;;;;;;24.57;40.34;98934.25;4953123;29;20219;-87
2022/07/12 11:09:11;;;;;;;0.50;0.50;;;;;;;24.85;40.55;98932.06;4942770;28;20587;-88
2022/07/12 11:11:44;;;;;;;1.70;0.63;;;;;;;24.99;42.48;98922.34;4952833;28;20058;-88
2022/07/12 11:14:23;;;;;;;0.50;0.50;;;;;;;24.92;42.55;98919.16;4952872;28;20055;-87
2022/07/12 11:16:52;;;;;;;0.60;0.60;;;;;;;24.94;40.96;98922.34;4935384;29;20064;-87
2022/07/12 11:19:24;;;;;;;0.50;0.50;;;;;;;24.92;40.63;98911.91;4948920;28;20051;-87
2022/07/12 11:21:55;;;;;;;0.88;0.80;;;;;;;25.08;41.22;98908.13;4940795;29;20142;-88
2022/07/12 11:24:25;;;;;;;0.50;0.50;;;;;;;25.13;40.12;98912.69;4973221;28;20058;-87
2022/07/12 11:26:53;;;;;;;0.75;0.75;;;;;;;25.28;39.66;98920.66;4950082;29;20044;-87
2022/07/12 11:29:20;;;;;;;0.60;0.57;;;;;;;25.18;40.80;98909.94;4950068;29;20047;-87
2022/07/12 11:31:47;;;;;;;0.60;0.60;;;;;;;25.30;40.09;98912.31;4953582;28;20051;-86
2022/07/12 11:34:26;;;;;;;0.60;0.60;;;;;;;25.56;40.23;98916.50;4951050;29;20053;-87
2022/07/12 11:36:59;;;;;;;0.50;0.50;;;;;;;25.66;40.18;98915.59;4951245;29;20039;-87
2022/07/12 11:39:40;;;;;;;0.60;0.60;;;;;;;25.79;40.18;98914.22;4946922;28;20099;-89
2022/07/12 11:42:10;;;;;;;0.70;0.70;;;;;;;25.63;37.91;98916.19;4946673;28;20047;-88
2022/07/12 11:44:51;;;;;;;0.63;0.63;;;;;;;25.50;38.75;98906.06;4954327;28;20193;-88
2022/07/12 11:47:21;;;;;;;0.65;0.65;;;;;;;25.68;39.71;98902.72;4943917;28;20058;-87
2022/07/12 11:49:54;;;;;;;0.60;0.60;;;;;;;25.47;39.19;98890.47;4953192;29;20087;-85
2022/07/12 11:52:23;;;;;;;0.70;0.70;;;;;;;25.31;38.28;98898.63;4954023;28;20452;-88
2022/07/12 11:54:52;;;;;;;0.70;0.70;;;;;;;24.95;38.61;98902.50;4948378;28;20051;-89